Time;durP1;ratioP1;P1;durP2;ratioP2;P2;SDS_P1;SDS_P2;PMS_P1;PMS_P2;Temp;Humidity;BMP_temperature;BMP_pressure;BME280_temperature;BME280_humidity;BME280_pressure;Samples;Min_cycle;Max_cycle;Signal;HPM_P1;HPM_P2
2023/04/16 00:02:01;;;;;;;5.88;5.28;;;;;;;10.52;77.79;100164.63;10405767;28;20056;-70
2023/04/16 00:07:03;;;;;;;6.00;5.40;;;;;;;10.50;78.05;100164.75;10403552;28;20107;-68
2023/04/16 00:12:05;;;;;;;6.35;5.40;;;;;;;10.56;77.63;100166.91;10404519;28;20056;-70
2023/04/16 00:17:06;;;;;;;6.22;5.63;;;;;;;10.58;77.01;100164.97;10408853;28;20749;-69
2023/04/16 00:22:08;;;;;;;5.63;5.13;;;;;;;10.48;77.59;100163.16;10412591;28;20040;-71
2023/04/16 00:27:10;;;;;;;6.25;5.07;;;;;;;10.51;77.13;100163.78;10411320;28;20044;-69
2023/04/16 00:32:11;;;;;;;6.20;5.60;;;;;;;10.52;77.14;100167.28;10405606;28;20111;-71
2023/04/16 00:37:12;;;;;;;5.05;4.57;;;;;;;10.52;77.22;100160.13;10397591;28;20049;-75
2023/04/16 00:42:14;;;;;;;5.97;5.38;;;;;;;10.50;76.90;100159.44;10407544;28;20151;-70
2023/04/16 00:47:16;;;;;;;5.60;5.00;;;;;;;10.55;77.05;100164.38;10407642;28;20049;-70
2023/04/16 00:52:17;;;;;;;5.20;4.70;;;;;;;10.59;76.80;100174.63;10407107;28;20136;-70
2023/04/16 00:57:19;;;;;;;5.93;4.82;;;;;;;10.45;77.64;100174.94;10406023;28;20583;-70
2023/04/16 01:02:21;;;;;;;7.30;5.30;;;;;;;10.47;77.24;100172.97;10407122;28;20708;-71
2023/04/16 01:07:23;;;;;;;6.40;5.60;;;;;;;10.49;77.05;100172.84;10406920;28;20524;-76
2023/04/16 01:12:24;;;;;;;6.82;6.00;;;;;;;10.30;78.11;100155.72;10413525;28;20041;-71
2023/04/16 01:17:26;;;;;;;6.28;5.60;;;;;;;10.23;78.18;100171.31;10412541;28;20510;-71
2023/04/16 01:22:28;;;;;;;6.35;5.72;;;;;;;10.34;77.85;100177.59;10412408;28;20908;-72
2023/04/16 01:27:30;;;;;;;6.07;5.47;;;;;;;10.27;78.10;100179.91;10409437;28;20213;-70
2023/04/16 01:32:31;;;;;;;6.43;5.72;;;;;;;10.29;78.01;100191.25;10400476;28;20041;-75
2023/04/16 01:37:32;;;;;;;6.43;5.70;;;;;;;10.20;78.63;100192.81;10410890;28;20232;-70
2023/04/16 01:42:34;;;;;;;6.90;5.53;;;;;;;10.09;78.54;100201.66;10411569;28;20110;-72
2023/04/16 01:47:36;;;;;;;6.00;5.38;;;;;;;10.20;78.25;100198.16;10409417;28;20064;-72
2023/04/16 01:52:37;;;;;;;6.18;5.38;;;;;;;10.21;78.38;100205.16;10407797;28;20061;-70
2023/04/16 01:57:39;;;;;;;7.13;6.38;;;;;;;10.15;78.41;100210.97;10409811;28;20495;-72
2023/04/16 02:02:40;;;;;;;6.80;5.88;;;;;;;10.13;78.85;100207.56;10408105;28;20162;-72
2023/04/16 02:07:42;;;;;;;6.20;5.60;;;;;;;10.01;78.78;100196.13;10409265;28;20106;-70
2023/04/16 02:12:44;;;;;;;6.25;5.68;;;;;;;10.16;78.25;100212.66;10408631;28;20136;-70
2023/04/16 02:17:47;;;;;;;7.05;6.35;;;;;;;10.20;78.16;100219.44;10425038;28;20049;-75
2023/04/16 02:22:48;;;;;;;6.47;5.88;;;;;;;10.26;77.97;100229.56;10412144;28;20099;-73
2023/04/16 02:27:50;;;;;;;6.82;6.13;;;;;;;10.36;77.50;100223.59;10413061;28;20072;-73
2023/04/16 02:32:51;;;;;;;7.13;6.18;;;;;;;10.35;77.08;100213.91;10412900;28;20537;-69
2023/04/16 02:37:53;;;;;;;7.25;6.55;;;;;;;10.33;77.71;100227.31;10436818;28;20391;-72
2023/04/16 02:42:54;;;;;;;6.75;6.05;;;;;;;10.38;77.43;100229.63;10433184;28;20249;-70
2023/04/16 02:47:56;;;;;;;6.38;5.78;;;;;;;10.45;77.04;100238.81;10408254;28;20067;-72
2023/04/16 02:52:57;;;;;;;7.32;6.40;;;;;;;10.34;77.22;100231.66;10408863;28;20053;-68
2023/04/16 02:57:58;;;;;;;7.72;6.68;;;;;;;10.39;77.63;100233.97;10407641;28;20152;-71
2023/04/16 03:03:00;;;;;;;7.68;6.18;;;;;;;10.48;76.68;100238.56;10405493;28;20080;-68
2023/04/16 03:08:05;;;;;;;7.28;6.20;;;;;;;10.51;76.60;100242.75;10398015;28;20049;-72
2023/04/16 03:13:07;;;;;;;7.30;6.60;;;;;;;10.45;76.79;100233.47;10406969;28;20130;-72
2023/04/16 03:18:08;;;;;;;7.95;6.38;;;;;;;10.36;76.74;100229.75;10408146;28;20049;-71
2023/04/16 03:23:09;;;;;;;8.50;7.70;;;;;;;10.21;77.31;100225.63;10407698;28;20045;-71
2023/04/16 03:28:10;;;;;;;8.52;7.25;;;;;;;10.23;77.16;100229.00;10409424;28;20668;-73
2023/04/16 03:33:12;;;;;;;8.18;7.38;;;;;;;10.23;77.39;100237.81;10408901;28;20571;-69
2023/04/16 03:38:13;;;;;;;7.70;6.70;;;;;;;10.25;77.16;100254.50;10412045;28;20076;-69
2023/04/16 03:43:15;;;;;;;8.20;7.40;;;;;;;10.18;77.48;100239.16;10415662;28;20057;-72
2023/04/16 03:48:16;;;;;;;7.47;6.78;;;;;;;10.09;77.73;100227.44;10438571;28;20037;-72
2023/04/16 03:53:18;;;;;;;8.45;7.32;;;;;;;10.06;78.47;100243.63;10453239;28;20065;-72
2023/04/16 03:58:20;;;;;;;8.50;7.68;;;;;;;9.81;78.90;100240.22;10422745;28;20460;-73
2023/04/16 04:03:21;;;;;;;8.55;7.25;;;;;;;9.68;79.79;100236.81;10419554;28;20462;-72
2023/04/16 04:08:23;;;;;;;8.55;7.38;;;;;;;9.63;80.21;100234.50;10415051;28;20049;-74
2023/04/16 04:13:24;;;;;;;8.50;7.60;;;;;;;9.61;80.38;100243.56;10415988;28;20054;-72
2023/04/16 04:18:26;;;;;;;8.82;7.97;;;;;;;9.61;80.28;100240.88;10416394;28;20041;-71
2023/04/16 04:23:27;;;;;;;9.10;7.78;;;;;;;9.65;79.82;100245.88;10415154;28;20055;-72
2023/04/16 04:28:29;;;;;;;7.60;6.80;;;;;;;9.71;79.96;100244.53;10438937;28;20033;-74
2023/04/16 04:33:31;;;;;;;8.15;7.18;;;;;;;9.79;79.00;100242.16;10440291;28;20061;-74
2023/04/16 04:38:32;;;;;;;7.43;6.55;;;;;;;9.89;78.68;100253.78;10417543;28;20045;-73
2023/04/16 04:43:33;;;;;;;7.57;6.88;;;;;;;9.86;78.47;100264.66;10414186;28;21203;-69
2023/04/16 04:48:35;;;;;;;8.43;6.40;;;;;;;9.86;78.49;100256.66;10410011;28;20550;-73
2023/04/16 04:53:36;;;;;;;6.45;5.85;;;;;;;9.94;77.50;100260.53;10413250;28;20201;-70
2023/04/16 04:58:38;;;;;;;7.13;6.30;;;;;;;10.00;77.77;100271.53;10409152;28;20060;-75
2023/04/16 05:03:39;;;;;;;6.05;5.47;;;;;;;9.96;77.99;100279.88;10411567;28;20053;-72
2023/04/16 05:08:41;;;;;;;6.07;5.47;;;;;;;10.14;77.46;100293.56;10410931;28;20051;-70
2023/04/16 05:13:42;;;;;;;6.45;5.78;;;;;;;10.00;77.70;100289.31;10408536;28;20206;-72
2023/04/16 05:18:43;;;;;;;5.78;5.10;;;;;;;10.07;76.88;100285.19;10411287;28;20056;-70
2023/04/16 05:23:45;;;;;;;6.20;5.60;;;;;;;10.17;76.42;100298.63;10409454;28;20404;-72
2023/04/16 05:28:46;;;;;;;5.93;5.43;;;;;;;10.03;76.92;100303.22;10410162;28;20075;-74
2023/04/16 05:33:47;;;;;;;6.95;6.05;;;;;;;10.11;76.83;100305.28;10411405;28;20052;-72
2023/04/16 05:38:49;;;;;;;6.65;5.38;;;;;;;10.09;77.19;100312.53;10411488;28;20524;-73
2023/04/16 05:43:50;;;;;;;6.40;5.80;;;;;;;10.09;77.11;100318.69;10408274;28;20080;-71
2023/04/16 05:48:51;;;;;;;6.40;5.78;;;;;;;10.11;77.63;100329.22;10409670;28;20055;-74
2023/04/16 05:53:53;;;;;;;5.75;5.15;;;;;;;10.23;76.98;100320.28;10411433;28;20060;-71
2023/04/16 05:58:54;;;;;;;7.50;6.80;;;;;;;10.33;77.10;100336.41;10407350;28;20060;-70
2023/04/16 06:03:55;;;;;;;6.78;6.07;;;;;;;10.30;77.45;100330.44;10409509;28;20045;-71
2023/04/16 06:08:57;;;;;;;6.95;6.22;;;;;;;10.23;78.59;100324.75;10412811;28;20045;-73
2023/04/16 06:13:58;;;;;;;7.10;6.40;;;;;;;10.32;78.43;100332.03;10406034;28;20072;-72
2023/04/16 06:19:00;;;;;;;7.22;6.38;;;;;;;10.19;79.26;100329.47;10408173;28;20056;-72
2023/04/16 06:24:01;;;;;;;7.00;6.35;;;;;;;10.15;78.85;100341.31;10408800;28;20459;-74
2023/04/16 06:29:02;;;;;;;7.28;6.57;;;;;;;10.16;80.28;100340.34;10405876;28;20499;-69
2023/04/16 06:34:04;;;;;;;6.40;5.80;;;;;;;10.31;79.57;100329.47;10409339;28;20071;-75
2023/04/16 06:39:05;;;;;;;5.68;5.18;;;;;;;10.21;79.60;100332.03;10409089;28;20049;-75
2023/04/16 06:44:07;;;;;;;7.30;5.50;;;;;;;10.19;80.93;100350.75;10408480;28;20048;-70
2023/04/16 06:49:08;;;;;;;6.05;5.45;;;;;;;10.31;81.05;100353.44;10423165;28;20052;-76
2023/04/16 06:54:10;;;;;;;6.47;5.53;;;;;;;10.41;81.06;100363.25;10408218;28;20210;-70
2023/04/16 06:59:11;;;;;;;6.20;5.60;;;;;;;10.32;82.21;100357.78;10408725;28;20049;-71
2023/04/16 07:04:13;;;;;;;5.85;4.80;;;;;;;10.43;81.21;100365.78;10406636;28;20137;-69
2023/04/16 07:09:16;;;;;;;6.10;5.38;;;;;;;10.47;80.84;100369.91;10405407;28;20419;-70
2023/04/16 07:14:18;;;;;;;6.68;6.07;;;;;;;10.45;81.63;100369.19;10406000;28;20055;-72
2023/04/16 07:19:19;;;;;;;7.13;6.43;;;;;;;10.34;82.50;100369.19;10407630;28;20599;-72
2023/04/16 07:24:21;;;;;;;6.80;6.20;;;;;;;10.47;81.60;100364.59;10409515;28;20227;-71
2023/04/16 07:29:23;;;;;;;6.32;5.72;;;;;;;10.38;81.49;100367.97;10412351;28;20828;-72
2023/04/16 07:34:24;;;;;;;7.68;6.90;;;;;;;10.25;81.80;100357.41;10410443;28;20384;-73
2023/04/16 07:39:25;;;;;;;7.78;6.97;;;;;;;10.23;82.18;100370.81;10414754;28;20049;-72
2023/04/16 07:44:27;;;;;;;7.88;7.10;;;;;;;10.43;82.09;100379.09;10416297;28;20049;-73
2023/04/16 07:49:28;;;;;;;8.32;6.63;;;;;;;10.51;81.61;100379.38;10414387;28;20665;-72
2023/04/16 07:54:29;;;;;;;8.05;7.13;;;;;;;10.64;80.82;100379.22;10416022;28;20067;-72
2023/04/16 07:59:31;;;;;;;9.25;7.63;;;;;;;10.51;80.26;100390.00;10415297;28;20136;-71
2023/04/16 08:04:32;;;;;;;7.82;7.10;;;;;;;10.55;81.39;100395.94;10413867;28;20163;-72
2023/04/16 08:09:35;;;;;;;7.93;7.13;;;;;;;10.72;80.38;100402.59;10413354;28;20177;-74
2023/04/16 08:14:36;;;;;;;8.75;7.65;;;;;;;10.79;79.73;100410.00;10415441;28;20171;-69
2023/04/16 08:19:37;;;;;;;8.52;7.72;;;;;;;10.79;79.72;100411.78;10412208;28;20206;-71
2023/04/16 08:24:39;;;;;;;8.55;7.75;;;;;;;10.75;80.07;100423.69;10414684;28;20053;-73
2023/04/16 08:29:40;;;;;;;7.78;6.95;;;;;;;10.92;78.89;100425.84;10413070;28;20539;-72
2023/04/16 08:34:41;;;;;;;8.70;7.85;;;;;;;10.90;79.02;100425.13;10413920;28;20091;-72
2023/04/16 08:39:43;;;;;;;9.27;8.38;;;;;;;11.00;78.96;100427.03;10411779;28;20052;-73
2023/04/16 08:44:48;;;;;;;9.25;8.25;;;;;;;11.12;78.45;100434.91;10412302;28;20146;-71
2023/04/16 08:49:53;;;;;;;8.10;7.03;;;;;;;11.29;77.48;100435.38;10410149;28;20485;-71
2023/04/16 08:55:05;;;;;;;8.65;7.85;;;;;;;11.33;77.51;100444.81;10412340;28;25020;-70
2023/04/16 09:00:08;;;;;;;9.10;8.13;;;;;;;11.24;77.03;100438.38;10407667;28;20469;-74
2023/04/16 09:05:16;;;;;;;8.48;6.93;;;;;;;11.33;76.94;100439.47;10410949;28;20148;-73
2023/04/16 09:10:18;;;;;;;8.50;7.70;;;;;;;11.38;76.91;100442.63;10408086;28;20061;-72
2023/04/16 09:15:20;;;;;;;8.45;7.63;;;;;;;11.51;76.20;100450.47;10411221;28;20277;-69
2023/04/16 09:20:22;;;;;;;8.95;8.05;;;;;;;11.38;76.91;100450.63;10421681;28;20088;-74
2023/04/16 09:25:24;;;;;;;8.32;7.28;;;;;;;11.36;76.70;100449.03;10461173;28;20036;-75
2023/04/16 09:30:26;;;;;;;9.35;8.25;;;;;;;11.51;76.20;100469.13;10442617;28;20063;-71
2023/04/16 09:35:44;;;;;;;9.32;8.43;;;;;;;11.63;75.70;100473.47;10409274;28;20037;-69
2023/04/16 09:40:48;;;;;;;8.65;7.82;;;;;;;11.68;75.55;100467.78;10408779;28;20054;-71
2023/04/16 09:45:54;;;;;;;8.85;8.00;;;;;;;11.64;75.22;100477.81;10410172;28;20997;-73
2023/04/16 09:50:56;;;;;;;9.43;8.52;;;;;;;11.70;74.95;100476.47;10410285;28;20055;-73
2023/04/16 09:56:00;;;;;;;8.25;7.43;;;;;;;11.74;75.06;100472.59;10405654;28;20105;-74
2023/04/16 10:01:03;;;;;;;8.80;7.90;;;;;;;11.89;74.87;100486.50;10410774;28;20140;-72
2023/04/16 10:06:18;;;;;;;8.23;7.28;;;;;;;11.90;74.77;100498.84;10406752;28;20261;-72
2023/04/16 10:11:20;;;;;;;8.60;7.70;;;;;;;11.84;74.85;100502.00;10407046;28;20052;-70
2023/04/16 10:16:22;;;;;;;8.00;7.25;;;;;;;11.74;74.57;100499.25;10407535;28;20149;-71
2023/04/16 10:21:25;;;;;;;7.45;6.75;;;;;;;11.75;75.49;100510.78;10406575;28;20065;-69
2023/04/16 10:26:28;;;;;;;8.85;7.95;;;;;;;11.80;75.37;100505.91;10408734;28;20774;-71
2023/04/16 10:31:30;;;;;;;7.73;6.93;;;;;;;11.89;75.56;100518.50;10407349;28;20471;-72
2023/04/16 10:36:36;;;;;;;9.20;7.70;;;;;;;11.80;75.81;100528.09;10406954;28;20045;-70
2023/04/16 10:41:37;;;;;;;7.95;6.97;;;;;;;11.91;75.75;100521.88;10406950;28;20151;-66
2023/04/16 10:46:41;;;;;;;8.93;7.95;;;;;;;11.95;75.88;100528.69;10421534;28;20045;-73
2023/04/16 10:51:52;;;;;;;9.30;8.40;;;;;;;11.90;77.14;100525.50;10421051;28;20076;-74
2023/04/16 10:56:57;;;;;;;9.13;8.20;;;;;;;11.83;77.84;100525.19;10422405;28;20052;-70
2023/04/16 11:02:00;;;;;;;8.82;7.93;;;;;;;11.80;78.41;100527.22;10419109;28;20499;-71
2023/04/16 11:07:15;;;;;;;9.63;8.35;;;;;;;11.91;78.34;100532.56;10415418;28;20144;-71
2023/04/16 11:12:26;;;;;;;8.68;7.88;;;;;;;11.90;78.11;100541.50;10419089;28;21042;-74
2023/04/16 11:17:31;;;;;;;7.97;7.18;;;;;;;11.93;78.25;100540.47;10420040;28;20102;-71
2023/04/16 11:22:35;;;;;;;8.93;8.02;;;;;;;11.92;78.62;100538.72;10421757;28;20122;-74
2023/04/16 11:27:37;;;;;;;8.80;7.90;;;;;;;12.02;80.17;100543.25;10423642;28;20060;-69
2023/04/16 11:32:39;;;;;;;9.80;8.80;;;;;;;11.93;79.64;100538.63;10423523;28;20041;-72
2023/04/16 11:37:40;;;;;;;9.10;7.82;;;;;;;11.97;80.43;100537.41;10432911;28;20181;-75
2023/04/16 11:42:43;;;;;;;10.18;8.77;;;;;;;12.12;81.76;100555.81;10439557;28;20076;-73
2023/04/16 11:47:50;;;;;;;9.52;8.63;;;;;;;12.21;80.98;100549.72;10437102;28;20056;-71
2023/04/16 11:52:54;;;;;;;9.20;8.40;;;;;;;12.28;81.10;100556.25;10407712;28;20198;-72
2023/04/16 11:57:56;;;;;;;9.68;8.50;;;;;;;12.34;80.43;100555.72;10411723;28;20055;-69
2023/04/16 12:02:57;;;;;;;9.95;8.50;;;;;;;12.38;80.28;100553.66;10411059;28;20673;-70
2023/04/16 12:08:02;;;;;;;9.57;8.57;;;;;;;12.41;80.71;100553.38;10414950;28;20483;-73
2023/04/16 12:13:10;;;;;;;10.83;9.73;;;;;;;12.44;80.48;100560.31;10417234;28;20052;-72
2023/04/16 12:18:13;;;;;;;10.27;9.18;;;;;;;12.52;79.86;100560.50;10417953;28;20852;-73
2023/04/16 12:23:29;;;;;;;10.95;9.95;;;;;;;12.53;80.10;100554.19;10418095;28;20077;-71
2023/04/16 12:28:37;;;;;;;11.60;10.40;;;;;;;12.70;79.97;100550.94;10418976;28;20170;-71
2023/04/16 12:33:38;;;;;;;11.95;10.75;;;;;;;12.81;78.93;100558.03;10417936;28;20088;-68
2023/04/16 12:38:39;;;;;;;13.05;11.65;;;;;;;12.87;78.94;100568.22;10407951;28;20989;-70
2023/04/16 12:43:41;;;;;;;13.82;12.52;;;;;;;12.92;78.38;100562.47;10417956;28;20064;-69
2023/04/16 12:48:42;;;;;;;13.77;12.38;;;;;;;13.04;77.72;100574.78;10416007;28;20103;-71
2023/04/16 12:53:44;;;;;;;14.63;13.13;;;;;;;13.07;77.49;100566.47;10419542;28;20063;-71
2023/04/16 12:58:45;;;;;;;15.20;13.73;;;;;;;13.05;75.22;100563.09;10417962;28;20507;-69
2023/04/16 13:03:47;;;;;;;14.43;13.02;;;;;;;13.14;75.45;100569.50;10415213;28;20138;-69
2023/04/16 13:08:48;;;;;;;16.33;14.73;;;;;;;13.13;74.58;100562.44;10414683;28;20510;-66
2023/04/16 13:13:50;;;;;;;15.07;13.68;;;;;;;13.23;74.15;100567.84;10414852;28;20148;-70
2023/04/16 13:18:51;;;;;;;16.20;14.50;;;;;;;13.24;73.56;100569.53;10416910;28;20087;-73
2023/04/16 13:23:53;;;;;;;16.00;14.30;;;;;;;13.20;71.70;100562.78;10414463;28;20083;-73
2023/04/16 13:28:55;;;;;;;16.15;14.57;;;;;;;13.37;71.22;100561.34;10415249;28;20292;-72
2023/04/16 13:33:56;;;;;;;17.42;15.02;;;;;;;13.35;71.15;100561.47;10416129;28;20045;-66
2023/04/16 13:38:58;;;;;;;16.33;14.68;;;;;;;13.40;71.28;100561.06;10416930;28;20108;-71
2023/04/16 13:44:00;;;;;;;16.20;14.27;;;;;;;13.47;70.96;100569.41;10413506;28;20169;-72
2023/04/16 13:49:02;;;;;;;15.10;13.60;;;;;;;13.47;71.03;100548.00;10416407;28;20703;-73
2023/04/16 13:54:04;;;;;;;16.45;14.85;;;;;;;13.63;70.72;100571.56;10414499;28;20059;-71
2023/04/16 13:59:05;;;;;;;15.98;14.38;;;;;;;13.71;70.10;100566.41;10417522;28;20151;-70
2023/04/16 14:04:07;;;;;;;14.00;12.60;;;;;;;13.63;70.22;100568.88;10437325;28;20041;-75
2023/04/16 14:09:09;;;;;;;13.85;12.50;;;;;;;13.49;70.97;100568.28;10467025;28;20064;-75
2023/04/16 14:14:11;;;;;;;14.30;12.85;;;;;;;13.62;70.19;100570.72;10459077;28;20049;-73
2023/04/16 14:19:13;;;;;;;15.90;14.30;;;;;;;13.68;70.09;100578.19;10450951;28;20055;-72
2023/04/16 14:24:14;;;;;;;14.32;12.93;;;;;;;13.56;70.24;100579.28;10424841;28;20074;-71
2023/04/16 14:29:15;;;;;;;13.55;12.15;;;;;;;13.50;70.50;100580.66;10415724;28;20053;-65
2023/04/16 14:34:17;;;;;;;12.75;11.45;;;;;;;13.23;70.79;100557.16;10408609;28;20057;-72
2023/04/16 14:39:18;;;;;;;13.30;12.00;;;;;;;13.37;71.67;100586.22;10411639;28;20053;-68
2023/04/16 14:44:22;;;;;;;14.20;12.70;;;;;;;13.39;71.78;100572.72;10411129;28;20052;-69
2023/04/16 14:49:24;;;;;;;12.65;11.35;;;;;;;13.50;70.50;100580.66;10412003;28;25424;-68
2023/04/16 14:54:25;;;;;;;11.90;10.80;;;;;;;13.60;69.00;100583.38;10410297;28;20496;-69
2023/04/16 14:59:27;;;;;;;10.57;9.48;;;;;;;13.58;68.37;100580.81;10411341;28;20606;-68
2023/04/16 15:04:28;;;;;;;10.15;9.23;;;;;;;13.56;67.87;100581.97;10411781;28;20431;-68
2023/04/16 15:09:31;;;;;;;11.20;9.43;;;;;;;13.52;66.85;100588.56;10411486;28;20127;-73
2023/04/16 15:14:32;;;;;;;7.90;7.20;;;;;;;13.56;67.86;100590.00;10413112;28;20471;-69
2023/04/16 15:19:33;;;;;;;8.85;8.02;;;;;;;13.60;68.21;100586.03;10407195;28;20152;-70
2023/04/16 15:24:35;;;;;;;8.68;7.85;;;;;;;13.64;69.05;100579.44;10393450;28;20278;-69
2023/04/16 15:29:36;;;;;;;8.00;7.20;;;;;;;13.64;67.60;100587.47;10385962;28;20059;-71
2023/04/16 15:34:37;;;;;;;7.72;6.93;;;;;;;13.51;67.73;100586.84;10387918;28;20063;-71
2023/04/16 15:39:39;;;;;;;7.50;6.80;;;;;;;13.48;67.61;100584.44;10387801;28;20485;-69
2023/04/16 15:44:41;;;;;;;6.97;6.18;;;;;;;13.47;66.58;100590.81;10399230;28;20818;-71
2023/04/16 15:49:42;;;;;;;7.55;6.72;;;;;;;13.44;66.91;100598.09;10398155;28;20049;-75
2023/04/16 15:54:43;;;;;;;7.18;6.47;;;;;;;13.40;66.34;100601.16;10394448;28;20661;-69
2023/04/16 15:59:45;;;;;;;7.13;6.53;;;;;;;13.40;66.28;100596.66;10398774;28;20049;-72
2023/04/16 16:05:12;;;;;;;7.45;6.63;;;;;;;13.44;65.88;100599.94;10397998;28;20060;-73
2023/04/16 16:10:13;;;;;;;9.07;6.68;;;;;;;13.48;65.69;100611.19;10399542;28;20060;-72
2023/04/16 16:15:15;;;;;;;7.57;6.85;;;;;;;13.46;66.14;100610.50;10397632;28;20053;-76
2023/04/16 16:20:16;;;;;;;7.03;6.38;;;;;;;13.50;65.74;100619.94;10396512;28;20132;-70
2023/04/16 16:25:19;;;;;;;6.53;5.90;;;;;;;13.49;66.50;100618.25;10398605;28;20052;-72
2023/04/16 16:30:20;;;;;;;8.70;7.63;;;;;;;13.35;66.93;100611.44;10397427;28;20079;-70
2023/04/16 16:35:22;;;;;;;7.90;7.13;;;;;;;13.29;66.37;100604.75;10396142;28;20087;-69
2023/04/16 16:40:24;;;;;;;7.10;6.47;;;;;;;13.38;66.11;100614.66;10398605;28;20052;-72
2023/04/16 16:45:25;;;;;;;8.77;7.97;;;;;;;13.39;67.27;100631.56;10396800;28;20179;-70
2023/04/16 16:50:27;;;;;;;8.75;7.80;;;;;;;13.35;68.78;100624.78;10377286;28;20200;-73
2023/04/16 16:55:28;;;;;;;9.25;8.40;;;;;;;13.22;69.94;100619.63;10390936;28;20079;-69
2023/04/16 17:00:30;;;;;;;10.15;9.15;;;;;;;13.22;70.34;100635.66;10393376;28;20064;-71
2023/04/16 17:05:32;;;;;;;10.48;9.48;;;;;;;13.19;70.76;100631.41;10395942;28;20049;-73
2023/04/16 17:10:34;;;;;;;10.30;9.40;;;;;;;13.17;71.71;100637.88;10394223;28;20229;-73
2023/04/16 17:15:36;;;;;;;10.90;9.80;;;;;;;13.14;71.38;100643.50;10407553;28;20077;-72
2023/04/16 17:20:37;;;;;;;11.52;9.30;;;;;;;13.11;72.40;100646.44;10395826;28;20072;-76
2023/04/16 17:25:38;;;;;;;10.27;9.32;;;;;;;13.12;71.98;100645.44;10401026;28;20462;-75
2023/04/16 17:30:41;;;;;;;9.90;9.05;;;;;;;13.06;72.60;100647.66;10403113;28;20132;-70
2023/04/16 17:35:42;;;;;;;10.85;9.85;;;;;;;12.96;73.87;100660.09;10421068;28;20147;-76
2023/04/16 17:40:44;;;;;;;11.75;10.70;;;;;;;12.91;73.69;100663.16;10410748;28;20072;-72
2023/04/16 17:45:45;;;;;;;11.02;9.93;;;;;;;12.82;74.01;100665.75;10440484;28;20049;-77
2023/04/16 17:50:47;;;;;;;12.13;11.00;;;;;;;12.79;74.32;100672.22;10436498;28;20053;-70
2023/04/16 17:55:50;;;;;;;11.52;10.35;;;;;;;12.75;74.59;100681.44;10398877;28;20075;-72
2023/04/16 18:00:52;;;;;;;12.52;11.32;;;;;;;12.71;74.67;100674.66;10393606;28;20102;-73
2023/04/16 18:05:53;;;;;;;11.50;10.32;;;;;;;12.70;75.02;100684.50;10398262;28;20053;-68
2023/04/16 18:10:55;;;;;;;12.77;10.98;;;;;;;12.66;75.54;100688.38;10395908;28;20138;-72
2023/04/16 18:15:57;;;;;;;12.30;11.10;;;;;;;12.63;76.09;100688.66;10399091;28;20142;-71
2023/04/16 18:20:58;;;;;;;12.07;10.88;;;;;;;12.62;75.62;100694.94;10394042;28;20053;-72
2023/04/16 18:25:59;;;;;;;12.82;11.63;;;;;;;12.62;75.54;100697.63;10392328;28;20059;-72
2023/04/16 18:31:04;;;;;;;12.82;11.50;;;;;;;12.59;76.71;100713.91;10393456;28;20045;-72
2023/04/16 18:36:06;;;;;;;12.48;11.23;;;;;;;12.52;77.23;100712.69;10392530;28;20147;-72
2023/04/16 18:41:21;;;;;;;13.75;12.18;;;;;;;12.53;77.51;100725.09;10390186;28;21185;-74
2023/04/16 18:46:22;;;;;;;12.70;11.40;;;;;;;12.48;77.87;100728.13;10395214;28;20817;-69
2023/04/16 18:51:25;;;;;;;12.73;11.43;;;;;;;12.46;77.32;100724.75;10389064;28;20122;-68
2023/04/16 18:56:28;;;;;;;13.13;11.85;;;;;;;12.38;77.45;100729.84;10395610;28;20053;-69
2023/04/16 19:01:30;;;;;;;13.70;12.20;;;;;;;12.35;78.13;100733.59;10394405;28;20059;-70
2023/04/16 19:06:31;;;;;;;13.43;12.13;;;;;;;12.31;78.88;100748.19;10391674;28;20052;-71
2023/04/16 19:11:33;;;;;;;13.85;12.45;;;;;;;12.26;79.44;100750.34;10409372;28;20125;-72
2023/04/16 19:16:34;;;;;;;13.50;12.30;;;;;;;12.25;79.81;100743.34;10423642;28;20144;-68
2023/04/16 19:21:36;;;;;;;14.75;13.27;;;;;;;12.18;80.58;100753.63;10409952;28;20086;-67
2023/04/16 19:26:37;;;;;;;14.90;13.50;;;;;;;12.14;80.50;100746.00;10402865;28;21130;-72
2023/04/16 19:31:38;;;;;;;14.82;13.25;;;;;;;12.13;80.26;100754.97;10402050;28;20096;-69
2023/04/16 19:36:40;;;;;;;15.75;14.15;;;;;;;12.12;80.27;100754.13;10395421;28;20058;-67
2023/04/16 19:41:42;;;;;;;15.85;14.25;;;;;;;12.03;80.72;100750.34;10398489;28;20507;-72
2023/04/16 19:46:44;;;;;;;15.90;14.20;;;;;;;12.06;81.00;100764.44;10401024;28;20099;-70
2023/04/16 19:51:45;;;;;;;16.15;14.45;;;;;;;12.05;80.80;100765.41;10399660;28;20424;-70
2023/04/16 19:56:50;;;;;;;15.40;13.90;;;;;;;11.93;80.99;100756.53;10399232;28;20049;-68
2023/04/16 20:01:51;;;;;;;16.90;15.18;;;;;;;11.95;81.25;100766.13;10400762;28;20056;-69
2023/04/16 20:06:53;;;;;;;15.20;13.70;;;;;;;11.92;81.86;100769.00;10398312;28;20864;-73
2023/04/16 20:11:55;;;;;;;16.00;14.40;;;;;;;11.87;81.91;100770.34;10398458;28;20056;-70
2023/04/16 20:16:57;;;;;;;17.55;15.27;;;;;;;11.87;82.15;100776.50;10394467;28;20065;-74
2023/04/16 20:21:58;;;;;;;17.48;15.63;;;;;;;11.83;81.96;100775.91;10395114;28;20633;-72
2023/04/16 20:27:00;;;;;;;16.13;14.60;;;;;;;11.83;81.65;100785.75;10394494;28;20218;-71
2023/04/16 20:32:02;;;;;;;16.75;15.07;;;;;;;11.74;82.45;100755.28;10392397;28;20060;-71
2023/04/16 20:37:03;;;;;;;16.98;15.25;;;;;;;11.79;82.19;100768.25;10396653;28;20057;-67
2023/04/16 20:42:08;;;;;;;18.00;16.20;;;;;;;11.75;82.50;100764.13;10391153;28;20056;-74
2023/04/16 20:47:11;;;;;;;16.67;15.00;;;;;;;11.75;82.84;100777.47;10400162;28;20053;-70
2023/04/16 20:52:13;;;;;;;15.30;13.77;;;;;;;11.69;82.56;100773.44;10400648;28;20526;-71
2023/04/16 20:57:15;;;;;;;16.17;14.57;;;;;;;11.65;81.56;100761.34;10398232;28;20097;-69
2023/04/16 21:02:16;;;;;;;13.98;12.55;;;;;;;11.60;82.01;100761.66;10393528;28;20057;-71
2023/04/16 21:07:19;;;;;;;15.65;13.15;;;;;;;11.58;82.03;100773.44;10398031;28;20057;-67
2023/04/16 21:12:20;;;;;;;13.45;11.73;;;;;;;11.60;81.64;100768.81;10423247;28;20106;-74
2023/04/16 21:17:22;;;;;;;13.65;12.10;;;;;;;11.64;81.82;100773.78;10452730;28;20041;-74
2023/04/16 21:22:23;;;;;;;13.25;11.75;;;;;;;11.61;81.38;100765.19;10407879;28;20838;-74
2023/04/16 21:27:26;;;;;;;13.30;11.88;;;;;;;11.62;81.38;100766.88;10396709;28;20119;-68
2023/04/16 21:32:27;;;;;;;12.38;10.88;;;;;;;11.62;81.44;100766.88;10399290;28;20071;-75
2023/04/16 21:37:28;;;;;;;11.82;10.68;;;;;;;11.59;81.53;100770.66;10396837;28;20064;-70
2023/04/16 21:42:38;;;;;;;12.80;11.50;;;;;;;11.61;81.20;100773.19;10411910;28;20072;-72
2023/04/16 21:47:40;;;;;;;13.90;11.30;;;;;;;11.62;81.15;100773.06;10416252;28;20061;-74
2023/04/16 21:52:45;;;;;;;12.43;11.15;;;;;;;11.61;81.13;100771.38;10416431;28;20102;-69
2023/04/16 21:57:46;;;;;;;13.15;11.85;;;;;;;11.50;81.38;100769.53;10411217;28;20712;-69
2023/04/16 22:02:48;;;;;;;11.95;10.75;;;;;;;11.55;81.10;100766.50;10409547;28;20071;-73
2023/04/16 22:07:50;;;;;;;12.43;11.18;;;;;;;11.51;81.59;100759.69;10412671;28;20065;-71
2023/04/16 22:12:53;;;;;;;11.60;10.40;;;;;;;11.52;81.36;100766.75;10412568;28;20140;-72
2023/04/16 22:17:55;;;;;;;13.48;12.07;;;;;;;11.48;81.67;100773.28;10409470;28;20045;-68
2023/04/16 22:22:57;;;;;;;14.80;13.27;;;;;;;11.43;81.70;100773.63;10409886;28;20073;-72
2023/04/16 22:28:00;;;;;;;12.25;11.05;;;;;;;11.40;82.11;100762.34;10410078;28;20132;-70
2023/04/16 22:33:02;;;;;;;15.45;13.93;;;;;;;11.44;82.70;100769.13;10408673;28;20057;-71
2023/04/16 22:38:04;;;;;;;14.18;12.73;;;;;;;11.40;82.32;100762.34;10411090;28;20049;-70
2023/04/16 22:43:05;;;;;;;14.95;13.50;;;;;;;11.39;82.44;100764.16;10413150;28;20231;-71
2023/04/16 22:48:07;;;;;;;14.68;12.90;;;;;;;11.32;82.15;100765.59;10413777;28;20055;-71
2023/04/16 22:53:08;;;;;;;14.77;13.38;;;;;;;11.34;82.42;100754.81;10412650;28;20065;-68
2023/04/16 22:58:10;;;;;;;14.10;12.70;;;;;;;11.37;82.37;100767.91;10410139;28;20148;-69